Time;durP1;ratioP1;P1;durP2;ratioP2;P2;SDS_P1;SDS_P2;PMS_P1;PMS_P2;Temp;Humidity;BMP_temperature;BMP_pressure;BME280_temperature;BME280_humidity;BME280_pressure;Samples;Min_cycle;Max_cycle;Signal;HPM_P1;HPM_P2
2023/03/17 00:02:23;;;;;;;;;;;;;;;;;;5028822;28;19972;-45
2023/03/17 00:04:51;;;;;;;;;;;;;;;;;;5029459;28;20378;-48
2023/03/17 00:07:17;;;;;;;;;;;;;;;;;;5028994;28;20006;-45
2023/03/17 00:09:43;;;;;;;;;;;;;;;;;;5028768;28;19945;-46
2023/03/17 00:12:09;;;;;;;;;;;;;;;;;;5029238;28;19979;-45
2023/03/17 00:14:36;;;;;;;;;;;;;;;;;;5029009;28;19983;-45
2023/03/17 00:17:01;;;;;;;;;;;;;;;;;;5028760;28;19909;-46
2023/03/17 00:19:28;;;;;;;;;;;;;;;;;;5029005;28;20301;-44
2023/03/17 00:21:54;;;;;;;;;;;;;;;;;;5028970;28;19913;-45
2023/03/17 00:24:21;;;;;;;;;;;;;;;;;;5032209;28;19913;-47
2023/03/17 00:26:47;;;;;;;;;;;;;;;;;;5033135;28;20008;-45
2023/03/17 00:29:12;;;;;;;;;;;;;;;;;;5032834;28;20008;-44
2023/03/17 00:31:38;;;;;;;;;;;;;;;;;;5032539;28;19913;-44
2023/03/17 00:34:05;;;;;;;;;;;;;;;;;;5032634;28;19917;-44
2023/03/17 00:36:31;;;;;;;;;;;;;;;;;;5033027;28;19916;-44
2023/03/17 00:38:57;;;;;;;;;;;;;;;;;;5032769;28;19909;-45
2023/03/17 00:41:23;;;;;;;;;;;;;;;;;;5033031;28;19909;-46
2023/03/17 00:43:49;;;;;;;;;;;;;;;;;;5032795;28;19917;-44
2023/03/17 00:46:15;;;;;;;;;;;;;;;;;;5031257;28;19928;-46
2023/03/17 00:48:42;;;;;;;;;;;;;;;;;;5032701;28;19909;-45
2023/03/17 00:51:08;;;;;;;;;;;;;;;;;;5032742;28;20388;-46
2023/03/17 00:53:34;;;;;;;;;;;;;;;;;;5032706;28;19921;-46
2023/03/17 00:56:00;;;;;;;;;;;;;;;;;;5032504;28;19956;-44
2023/03/17 00:58:25;;;;;;;;;;;;;;;;;;5032418;28;19968;-44
2023/03/17 01:00:52;;;;;;;;;;;;;;;;;;5031110;28;19914;-44
2023/03/17 01:03:18;;;;;;;;;;;;;;;;;;5032233;28;20373;-45
2023/03/17 01:05:45;;;;;;;;;;;;;;;;;;5032054;28;19917;-44
2023/03/17 01:08:10;;;;;;;;;;;;;;;;;;5032286;28;19924;-43
2023/03/17 01:10:36;;;;;;;;;;;;;;;;;;5032267;28;19913;-44
2023/03/17 01:13:03;;;;;;;;;;;;;;;;;;5031981;28;20312;-44
2023/03/17 01:15:30;;;;;;;;;;;;;;;;;;5032332;28;20007;-44
2023/03/17 01:17:56;;;;;;;;;;;;;;;;;;5031761;28;19924;-45
2023/03/17 01:20:22;;;;;;;;;;;;;;;;;;5032021;28;19913;-44
2023/03/17 01:22:48;;;;;;;;;;;;;;;;;;5030803;28;19932;-44
2023/03/17 01:25:14;;;;;;;;;;;;;;;;;;5031938;28;19913;-44
2023/03/17 01:27:40;;;;;;;;;;;;;;;;;;5031445;28;19932;-44
2023/03/17 01:30:06;;;;;;;;;;;;;;;;;;5031526;28;19913;-44
2023/03/17 01:32:32;;;;;;;;;;;;;;;;;;5031429;28;19944;-44
2023/03/17 01:34:58;;;;;;;;;;;;;;;;;;5031800;28;19909;-47
2023/03/17 01:37:25;;;;;;;;;;;;;;;;;;5031660;28;20075;-44
2023/03/17 01:39:51;;;;;;;;;;;;;;;;;;5031515;28;19916;-45
2023/03/17 01:42:17;;;;;;;;;;;;;;;;;;5030369;28;19913;-45
2023/03/17 01:44:44;;;;;;;;;;;;;;;;;;5031245;28;19917;-44
2023/03/17 01:47:10;;;;;;;;;;;;;;;;;;5031167;28;19913;-44
2023/03/17 01:49:36;;;;;;;;;;;;;;;;;;5031403;28;19909;-44
2023/03/17 01:52:02;;;;;;;;;;;;;;;;;;5031224;28;19921;-45
2023/03/17 01:54:28;;;;;;;;;;;;;;;;;;5031432;28;19928;-45
2023/03/17 01:56:55;;;;;;;;;;;;;;;;;;5031134;28;19913;-46
2023/03/17 01:59:21;;;;;;;;;;;;;;;;;;5030803;28;19956;-45
2023/03/17 02:01:47;;;;;;;;;;;;;;;;;;5030822;28;19955;-45
2023/03/17 02:04:13;;;;;;;;;;;;;;;;;;5030965;28;19924;-44
2023/03/17 02:06:39;;;;;;;;;;;;;;;;;;5030944;28;19924;-45
2023/03/17 02:09:04;;;;;;;;;;;;;;;;;;5030474;28;19967;-44
2023/03/17 02:11:30;;;;;;;;;;;;;;;;;;5029701;28;19909;-44
2023/03/17 02:13:56;;;;;;;;;;;;;;;;;;5028780;28;20369;-45
2023/03/17 02:16:22;;;;;;;;;;;;;;;;;;5030486;28;19924;-44
2023/03/17 02:18:48;;;;;;;;;;;;;;;;;;5030723;28;20007;-44
2023/03/17 02:21:14;;;;;;;;;;;;;;;;;;5030464;28;20743;-45
2023/03/17 02:23:40;;;;;;;;;;;;;;;;;;5030942;28;20000;-45
2023/03/17 02:26:07;;;;;;;;;;;;;;;;;;5030550;28;20345;-46
2023/03/17 02:28:33;;;;;;;;;;;;;;;;;;5030069;28;20388;-44
2023/03/17 02:30:59;;;;;;;;;;;;;;;;;;5030854;28;19913;-43
2023/03/17 02:33:26;;;;;;;;;;;;;;;;;;5030782;28;19931;-44
2023/03/17 02:35:52;;;;;;;;;;;;;;;;;;5030749;28;19956;-45
2023/03/17 02:38:18;;;;;;;;;;;;;;;;;;5030254;28;19909;-45
2023/03/17 02:40:44;;;;;;;;;;;;;;;;;;5030637;28;20573;-44
2023/03/17 02:43:10;;;;;;;;;;;;;;;;;;5030211;28;19924;-44
2023/03/17 02:45:35;;;;;;;;;;;;;;;;;;5029632;28;20300;-44
2023/03/17 02:48:02;;;;;;;;;;;;;;;;;;5030418;28;19909;-48
2023/03/17 02:50:28;;;;;;;;;;;;;;;;;;5030507;28;19909;-45
2023/03/17 02:52:54;;;;;;;;;;;;;;;;;;5030132;28;19921;-47
2023/03/17 02:55:20;;;;;;;;;;;;;;;;;;5029946;28;19943;-43
2023/03/17 02:57:46;;;;;;;;;;;;;;;;;;5030026;28;19939;-45
2023/03/17 03:00:13;;;;;;;;;;;;;;;;;;5029481;28;19921;-46
2023/03/17 03:02:38;;;;;;;;;;;;;;;;;;5030315;28;19916;-45
2023/03/17 03:05:04;;;;;;;;;;;;;;;;;;5029749;28;19913;-49
2023/03/17 03:07:31;;;;;;;;;;;;;;;;;;5030304;28;19948;-44
2023/03/17 03:09:57;;;;;;;;;;;;;;;;;;5029506;28;20309;-45
2023/03/17 03:12:23;;;;;;;;;;;;;;;;;;5029614;28;19920;-44
2023/03/17 03:14:49;;;;;;;;;;;;;;;;;;5025009;28;19917;-44
2023/03/17 03:17:15;;;;;;;;;;;;;;;;;;5009923;28;19964;-44
2023/03/17 03:19:41;;;;;;;;;;;;;;;;;;5010066;28;20515;-43
2023/03/17 03:22:07;;;;;;;;;;;;;;;;;;5009954;28;19953;-44
2023/03/17 03:24:33;;;;;;;;;;;;;;;;;;5014006;28;19995;-45
2023/03/17 03:26:58;;;;;;;;;;;;;;;;;;5029253;28;19925;-44
2023/03/17 03:29:24;;;;;;;;;;;;;;;;;;5029098;28;20450;-44
2023/03/17 03:31:50;;;;;;;;;;;;;;;;;;5029153;28;19996;-44
2023/03/17 03:34:18;;;;;;;;;;;;;;;;;;5029110;28;20276;-45
2023/03/17 03:36:44;;;;;;;;;;;;;;;;;;5029286;28;20336;-45
2023/03/17 03:39:10;;;;;;;;;;;;;;;;;;5029096;28;19916;-45
2023/03/17 03:41:36;;;;;;;;;;;;;;;;;;5029088;28;19932;-44
2023/03/17 03:44:01;;;;;;;;;;;;;;;;;;5029133;28;19913;-44
2023/03/17 03:46:27;;;;;;;;;;;;;;;;;;5029180;28;19910;-44
2023/03/17 03:48:53;;;;;;;;;;;;;;;;;;5029045;28;19913;-45
2023/03/17 03:51:19;;;;;;;;;;;;;;;;;;5028877;28;19964;-45
2023/03/17 03:53:47;;;;;;;;;;;;;;;;;;5028435;28;19917;-44
2023/03/17 03:56:12;;;;;;;;;;;;;;;;;;5029072;28;19941;-45
2023/03/17 03:58:38;;;;;;;;;;;;;;;;;;5026997;28;19956;-45
2023/03/17 04:01:05;;;;;;;;;;;;;;;;;;5028863;28;20393;-44
2023/03/17 04:03:31;;;;;;;;;;;;;;;;;;5029032;28;19913;-45
2023/03/17 04:05:57;;;;;;;;;;;;;;;;;;5028734;28;19920;-45
2023/03/17 04:08:23;;;;;;;;;;;;;;;;;;5028417;28;19913;-44
2023/03/17 04:10:49;;;;;;;;;;;;;;;;;;5029066;28;19913;-44
2023/03/17 04:13:15;;;;;;;;;;;;;;;;;;5028292;28;19965;-46
2023/03/17 04:15:41;;;;;;;;;;;;;;;;;;5028174;28;20441;-46
2023/03/17 04:18:07;;;;;;;;;;;;;;;;;;5028358;28;19955;-46
2023/03/17 04:20:33;;;;;;;;;;;;;;;;;;5028667;28;19910;-48
2023/03/17 04:22:59;;;;;;;;;;;;;;;;;;5028902;28;19916;-46
2023/03/17 04:25:25;;;;;;;;;;;;;;;;;;5028957;28;19999;-46
2023/03/17 04:27:51;;;;;;;;;;;;;;;;;;5028841;28;19925;-45
2023/03/17 04:30:17;;;;;;;;;;;;;;;;;;5028852;28;19936;-46
2023/03/17 04:32:43;;;;;;;;;;;;;;;;;;5028741;28;19940;-46
2023/03/17 04:35:09;;;;;;;;;;;;;;;;;;5029042;28;20400;-45
2023/03/17 04:37:35;;;;;;;;;;;;;;;;;;5028339;28;19920;-45
2023/03/17 04:40:01;;;;;;;;;;;;;;;;;;5028946;28;19913;-44
2023/03/17 04:42:27;;;;;;;;;;;;;;;;;;5028689;28;20367;-46
2023/03/17 04:44:53;;;;;;;;;;;;;;;;;;5029101;28;19917;-45
2023/03/17 04:47:19;;;;;;;;;;;;;;;;;;5028907;28;20289;-44
2023/03/17 04:49:45;;;;;;;;;;;;;;;;;;5028902;28;19959;-45
2023/03/17 04:52:11;;;;;;;;;;;;;;;;;;5028454;28;20461;-44
2023/03/17 04:54:37;;;;;;;;;;;;;;;;;;5028786;28;19913;-45
2023/03/17 04:57:03;;;;;;;;;;;;;;;;;;5028748;28;19920;-44
2023/03/17 04:59:29;;;;;;;;;;;;;;;;;;5029063;28;20285;-45
2023/03/17 05:01:55;;;;;;;;;;;;;;;;;;5028815;28;19944;-47
2023/03/17 05:04:21;;;;;;;;;;;;;;;;;;5028787;28;19995;-45
2023/03/17 05:06:47;;;;;;;;;;;;;;;;;;5028627;28;20008;-45
2023/03/17 05:09:12;;;;;;;;;;;;;;;;;;5029899;28;19913;-44
2023/03/17 05:11:40;;;;;;;;;;;;;;;;;;5032576;28;19940;-46
2023/03/17 05:14:06;;;;;;;;;;;;;;;;;;5032527;28;19966;-44
2023/03/17 05:16:32;;;;;;;;;;;;;;;;;;5032392;28;19917;-44
2023/03/17 05:18:58;;;;;;;;;;;;;;;;;;5032146;28;19921;-44
2023/03/17 05:21:24;;;;;;;;;;;;;;;;;;5031938;28;20347;-46
2023/03/17 05:23:49;;;;;;;;;;;;;;;;;;5032176;28;19909;-46
2023/03/17 05:26:15;;;;;;;;;;;;;;;;;;5031855;28;19912;-45
2023/03/17 05:28:41;;;;;;;;;;;;;;;;;;5032165;28;19917;-48
2023/03/17 05:31:07;;;;;;;;;;;;;;;;;;5032087;28;20019;-45
2023/03/17 05:33:35;;;;;;;;;;;;;;;;;;5032110;28;19921;-44
2023/03/17 05:36:02;;;;;;;;;;;;;;;;;;5031673;28;20009;-47
2023/03/17 05:38:28;;;;;;;;;;;;;;;;;;5032220;28;19909;-45
2023/03/17 05:40:54;;;;;;;;;;;;;;;;;;5031801;28;20409;-47
2023/03/17 05:43:20;;;;;;;;;;;;;;;;;;5031818;28;20004;-47
2023/03/17 05:45:49;;;;;;;;;;;;;;;;;;5031073;28;19909;-46
2023/03/17 05:48:15;;;;;;;;;;;;;;;;;;5031103;28;20084;-45
2023/03/17 05:50:42;;;;;;;;;;;;;;;;;;5031248;28;19909;-48
2023/03/17 05:53:08;;;;;;;;;;;;;;;;;;5031318;28;19947;-45
2023/03/17 05:55:34;;;;;;;;;;;;;;;;;;5031463;28;20401;-44
2023/03/17 05:58:00;;;;;;;;;;;;;;;;;;5031637;28;19913;-45
2023/03/17 06:00:27;;;;;;;;;;;;;;;;;;5031272;28;19987;-45
2023/03/17 06:02:53;;;;;;;;;;;;;;;;;;5031057;28;19909;-44
2023/03/17 06:05:19;;;;;;;;;;;;;;;;;;5030956;28;19920;-45
2023/03/17 06:07:45;;;;;;;;;;;;;;;;;;5030899;28;20289;-45
2023/03/17 06:10:11;;;;;;;;;;;;;;;;;;5031013;28;19909;-46
2023/03/17 06:12:37;;;;;;;;;;;;;;;;;;5031373;28;19921;-45
2023/03/17 06:15:04;;;;;;;;;;;;;;;;;;5031091;28;19909;-45
2023/03/17 06:17:30;;;;;;;;;;;;;;;;;;5030765;28;19913;-47
2023/03/17 06:19:56;;;;;;;;;;;;;;;;;;5030358;28;20027;-44
2023/03/17 06:22:21;;;;;;;;;;;;;;;;;;5030074;28;19913;-45
2023/03/17 06:24:47;;;;;;;;;;;;;;;;;;5030768;28;19956;-44
2023/03/17 06:27:13;;;;;;;;;;;;;;;;;;5030609;28;19921;-46
2023/03/17 06:29:39;;;;;;;;;;;;;;;;;;5030606;28;19913;-46
2023/03/17 06:32:05;;;;;;;;;;;;;;;;;;5030799;28;20365;-45
2023/03/17 06:34:31;;;;;;;;;;;;;;;;;;5030205;28;19959;-44
2023/03/17 06:36:57;;;;;;;;;;;;;;;;;;5030584;28;19913;-45
2023/03/17 06:39:23;;;;;;;;;;;;;;;;;;5030316;28;19909;-45
2023/03/17 06:41:50;;;;;;;;;;;;;;;;;;5030166;28;20341;-45
2023/03/17 06:44:16;;;;;;;;;;;;;;;;;;5030343;28;19959;-48
2023/03/17 06:46:42;;;;;;;;;;;;;;;;;;5030704;28;19913;-45
2023/03/17 06:49:12;;;;;;;;;;;;;;;;;;5030101;28;20306;-44
2023/03/17 06:51:38;;;;;;;;;;;;;;;;;;5030110;28;19923;-44
2023/03/17 06:54:04;;;;;;;;;;;;;;;;;;5030179;28;20015;-45
2023/03/17 06:56:29;;;;;;;;;;;;;;;;;;5030205;28;20339;-46
2023/03/17 06:58:55;;;;;;;;;;;;;;;;;;5030443;28;19920;-45
2023/03/17 07:01:22;;;;;;;;;;;;;;;;;;5030058;28;19916;-46
2023/03/17 07:03:48;;;;;;;;;;;;;;;;;;5030015;28;20308;-44
2023/03/17 07:06:14;;;;;;;;;;;;;;;;;;5030530;28;19991;-44
2023/03/17 07:08:40;;;;;;;;;;;;;;;;;;5030148;28;20374;-46
2023/03/17 07:11:06;;;;;;;;;;;;;;;;;;5029806;28;19910;-45
2023/03/17 07:13:36;;;;;;;;;;;;;;;;;;5029623;28;19942;-45
2023/03/17 07:16:02;;;;;;;;;;;;;;;;;;5029568;28;19928;-46
2023/03/17 07:18:30;;;;;;;;;;;;;;;;;;5029460;28;19913;-46
2023/03/17 07:20:56;;;;;;;;;;;;;;;;;;5029939;28;19906;-45
2023/03/17 07:23:22;;;;;;;;;;;;;;;;;;5029619;28;19963;-46
2023/03/17 07:25:48;;;;;;;;;;;;;;;;;;5028330;28;19920;-47
2023/03/17 07:28:15;;;;;;;;;;;;;;;;;;5029385;28;19921;-45
2023/03/17 07:30:45;;;;;;;;;;;;;;;;;;5029085;28;19920;-45
2023/03/17 07:33:11;;;;;;;;;;;;;;;;;;5029068;28;19917;-46
2023/03/17 07:35:37;;;;;;;;;;;;;;;;;;5029774;28;19920;-46
2023/03/17 07:38:04;;;;;;;;;;;;;;;;;;5029398;28;20005;-50
2023/03/17 07:40:30;;;;;;;;;;;;;;;;;;5029383;28;20305;-47
2023/03/17 07:42:55;;;;;;;;;;;;;;;;;;5029643;28;20080;-44
2023/03/17 07:45:21;;;;;;;;;;;;;;;;;;5028974;28;20420;-46
2023/03/17 07:47:47;;;;;;;;;;;;;;;;;;5029221;28;19924;-47
2023/03/17 07:50:14;;;;;;;;;;;;;;;;;;5029215;28;20285;-46
2023/03/17 07:52:41;;;;;;;;;;;;;;;;;;5029321;28;19921;-44
2023/03/17 07:55:09;;;;;;;;;;;;;;;;;;5029538;28;19913;-45
2023/03/17 07:57:35;;;;;;;;;;;;;;;;;;5029232;28;19913;-44
2023/03/17 08:00:01;;;;;;;;;;;;;;;;;;5028692;28;20004;-46
2023/03/17 08:02:27;;;;;;;;;;;;;;;;;;5029280;28;20506;-45
2023/03/17 08:04:52;;;;;;;;;;;;;;;;;;5029671;28;19920;-46
2023/03/17 08:07:19;;;;;;;;;;;;;;;;;;5029344;28;19913;-46
2023/03/17 08:09:45;;;;;;;;;;;;;;;;;;5029107;28;19913;-45
2023/03/17 08:12:11;;;;;;;;;;;;;;;;;;5028707;28;19944;-44
2023/03/17 08:14:37;;;;;;;;;;;;;;;;;;5028252;28;20392;-44
2023/03/17 08:17:03;;;;;;;;;;;;;;;;;;5028835;28;20385;-45
2023/03/17 08:19:29;;;;;;;;;;;;;;;;;;5028084;28;20027;-44
2023/03/17 08:21:55;;;;;;;;;;;;;;;;;;5028261;28;20039;-46
2023/03/17 08:24:21;;;;;;;;;;;;;;;;;;5028580;28;19964;-45
2023/03/17 08:26:47;;;;;;;;;;;;;;;;;;5028515;28;19975;-44
2023/03/17 08:29:14;;;;;;;;;;;;;;;;;;5028200;28;20373;-44
2023/03/17 08:31:40;;;;;;;;;;;;;;;;;;5028767;28;19913;-44
2023/03/17 08:34:06;;;;;;;;;;;;;;;;;;5028455;28;19967;-45
2023/03/17 08:36:32;;;;;;;;;;;;;;;;;;5028380;28;19952;-43
2023/03/17 08:38:58;;;;;;;;;;;;;;;;;;5028795;28;20416;-43
2023/03/17 08:41:25;;;;;;;;;;;;;;;;;;5027083;28;20419;-43
2023/03/17 08:43:51;;;;;;;;;;;;;;;;;;5028615;28;19984;-43
2023/03/17 08:46:17;;;;;;;;;;;;;;;;;;5031927;28;19937;-45
2023/03/17 08:48:44;;;;;;;;;;;;;;;;;;5032696;28;20004;-44
2023/03/17 08:51:09;;;;;;;;;;;;;;;;;;5032265;28;20544;-44
2023/03/17 08:53:36;;;;;;;;;;;;;;;;;;5032110;28;20011;-43
2023/03/17 08:56:03;;;;;;;;;;;;;;;;;;5032172;28;19913;-45
2023/03/17 08:58:29;;;;;;;;;;;;;;;;;;5030625;28;19932;-43
2023/03/17 09:00:55;;;;;;;;;;;;;;;;;;5031885;28;19944;-43
2023/03/17 09:03:21;;;;;;;;;;;;;;;;;;5031868;28;20598;-43
2023/03/17 09:05:47;;;;;;;;;;;;;;;;;;5032055;28;19913;-43
2023/03/17 09:08:13;;;;;;;;;;;;;;;;;;5032027;28;19951;-43
2023/03/17 09:10:39;;;;;;;;;;;;;;;;;;5031842;28;19913;-44
2023/03/17 09:13:05;;;;;;;;;;;;;;;;;;5031695;28;19920;-47
2023/03/17 09:15:31;;;;;;;;;;;;;;;;;;5031624;28;19917;-47
2023/03/17 09:17:57;;;;;;;;;;;;;;;;;;5031992;28;19948;-43
2023/03/17 09:20:22;;;;;;;;;;;;;;;;;;5031884;28;19951;-43
2023/03/17 09:22:48;;;;;;;;;;;;;;;;;;5031939;28;19909;-44
2023/03/17 09:25:14;;;;;;;;;;;;;;;;;;5032031;28;19913;-44
2023/03/17 09:27:40;;;;;;;;;;;;;;;;;;5031212;28;20320;-44
2023/03/17 09:30:06;;;;;;;;;;;;;;;;;;5030653;28;19920;-44
2023/03/17 09:32:32;;;;;;;;;;;;;;;;;;5031568;28;20480;-44
2023/03/17 09:34:58;;;;;;;;;;;;;;;;;;5031581;28;19967;-44
2023/03/17 09:37:24;;;;;;;;;;;;;;;;;;5031694;28;19909;-44
2023/03/17 09:39:50;;;;;;;;;;;;;;;;;;5031506;28;20010;-46
2023/03/17 09:42:17;;;;;;;;;;;;;;;;;;5029793;28;19962;-44
2023/03/17 09:44:43;;;;;;;;;;;;;;;;;;5031487;28;19955;-44
2023/03/17 09:47:09;;;;;;;;;;;;;;;;;;5031555;28;20338;-46
2023/03/17 09:49:35;;;;;;;;;;;;;;;;;;5031288;28;19916;-45
2023/03/17 09:52:01;;;;;;;;;;;;;;;;;;5031129;28;19974;-44
2023/03/17 09:54:27;;;;;;;;;;;;;;;;;;5031190;28;20026;-43
2023/03/17 09:56:53;;;;;;;;;;;;;;;;;;5030629;28;20396;-44
2023/03/17 09:59:19;;;;;;;;;;;;;;;;;;5031113;28;20042;-45
2023/03/17 10:01:45;;;;;;;;;;;;;;;;;;5031052;28;19916;-46
2023/03/17 10:04:11;;;;;;;;;;;;;;;;;;5031056;28;19916;-45
2023/03/17 10:06:37;;;;;;;;;;;;;;;;;;5030828;28;19913;-45
2023/03/17 10:09:03;;;;;;;;;;;;;;;;;;5031104;28;19909;-47
2023/03/17 10:11:30;;;;;;;;;;;;;;;;;;5030542;28;19920;-45
2023/03/17 10:13:56;;;;;;;;;;;;;;;;;;5031205;28;19921;-45
2023/03/17 10:16:23;;;;;;;;;;;;;;;;;;5031015;28;20361;-44
2023/03/17 10:18:48;;;;;;;;;;;;;;;;;;5030936;28;19957;-44
2023/03/17 10:21:15;;;;;;;;;;;;;;;;;;5030775;28;19963;-45
2023/03/17 10:23:42;;;;;;;;;;;;;;;;;;5030316;28;19944;-45
2023/03/17 10:26:08;;;;;;;;;;;;;;;;;;5029330;28;19960;-45
2023/03/17 10:28:37;;;;;;;;;;;;;;;;;;5030463;28;19972;-45
2023/03/17 10:31:03;;;;;;;;;;;;;;;;;;5030627;28;20449;-44
2023/03/17 10:33:31;;;;;;;;;;;;;;;;;;5030585;28;20045;-44
2023/03/17 10:35:57;;;;;;;;;;;;;;;;;;5030550;28;19909;-44
2023/03/17 10:38:23;;;;;;;;;;;;;;;;;;5030150;28;19913;-44
2023/03/17 10:40:49;;;;;;;;;;;;;;;;;;5029695;28;19917;-46
2023/03/17 10:43:15;;;;;;;;;;;;;;;;;;5030180;28;19909;-48
2023/03/17 10:45:41;;;;;;;;;;;;;;;;;;5030143;28;19913;-45
2023/03/17 10:48:08;;;;;;;;;;;;;;;;;;5030036;28;19955;-44
2023/03/17 10:50:34;;;;;;;;;;;;;;;;;;5030010;28;20420;-44
2023/03/17 10:53:00;;;;;;;;;;;;;;;;;;5029546;28;19960;-44
2023/03/17 10:55:26;;;;;;;;;;;;;;;;;;5029908;28;19920;-45
2023/03/17 10:57:53;;;;;;;;;;;;;;;;;;5030454;28;19917;-43
2023/03/17 11:00:19;;;;;;;;;;;;;;;;;;5030152;28;19967;-44
2023/03/17 11:02:44;;;;;;;;;;;;;;;;;;5030437;28;19909;-44
2023/03/17 11:05:11;;;;;;;;;;;;;;;;;;5029972;28;19956;-43
2023/03/17 11:07:37;;;;;;;;;;;;;;;;;;5029452;28;19914;-47
2023/03/17 11:10:03;;;;;;;;;;;;;;;;;;5029783;28;19923;-45
2023/03/17 11:12:29;;;;;;;;;;;;;;;;;;5029981;28;19913;-44
2023/03/17 11:14:56;;;;;;;;;;;;;;;;;;5029869;28;19917;-45
2023/03/17 11:17:22;;;;;;;;;;;;;;;;;;5030138;28;20008;-44
2023/03/17 11:19:48;;;;;;;;;;;;;;;;;;5029917;28;20051;-44
2023/03/17 11:22:14;;;;;;;;;;;;;;;;;;5030157;28;19913;-45
2023/03/17 11:24:40;;;;;;;;;;;;;;;;;;5029462;28;20723;-44
2023/03/17 11:27:07;;;;;;;;;;;;;;;;;;5029452;28;20412;-44
2023/03/17 11:29:33;;;;;;;;;;;;;;;;;;5029594;28;19913;-44
2023/03/17 11:31:59;;;;;;;;;;;;;;;;;;5029563;28;19924;-48
2023/03/17 11:34:26;;;;;;;;;;;;;;;;;;5029412;28;20369;-46
2023/03/17 11:36:52;;;;;;;;;;;;;;;;;;5029634;28;19920;-47
2023/03/17 11:39:17;;;;;;;;;;;;;;;;;;5029396;28;19909;-44
2023/03/17 11:41:44;;;;;;;;;;;;;;;;;;5029672;28;20387;-44
2023/03/17 11:44:11;;;;;;;;;;;;;;;;;;5029413;28;19955;-46
2023/03/17 11:46:36;;;;;;;;;;;;;;;;;;5029722;28;20393;-44
2023/03/17 11:49:02;;;;;;;;;;;;;;;;;;5029482;28;19920;-44
2023/03/17 11:51:29;;;;;;;;;;;;;;;;;;5029271;28;19913;-44
2023/03/17 11:53:55;;;;;;;;;;;;;;;;;;5028742;28;20468;-43
2023/03/17 11:56:21;;;;;;;;;;;;;;;;;;5029271;28;19996;-46
2023/03/17 11:58:47;;;;;;;;;;;;;;;;;;5029224;28;19913;-43
2023/03/17 12:01:13;;;;;;;;;;;;;;;;;;5029238;28;19913;-44
2023/03/17 12:03:39;;;;;;;;;;;;;;;;;;5029037;28;19913;-43
2023/03/17 12:06:04;;;;;;;;;;;;;;;;;;5028940;28;19921;-45
2023/03/17 12:08:30;;;;;;;;;;;;;;;;;;5029187;28;19909;-44
2023/03/17 12:10:56;;;;;;;;;;;;;;;;;;5029131;28;19917;-46
2023/03/17 12:13:22;;;;;;;;;;;;;;;;;;5029086;28;19924;-44
2023/03/17 12:15:48;;;;;;;;;;;;;;;;;;5028682;28;20004;-46
2023/03/17 12:18:14;;;;;;;;;;;;;;;;;;5028984;28;20313;-49
2023/03/17 12:20:40;;;;;;;;;;;;;;;;;;5028545;28;19913;-44
2023/03/17 12:23:06;;;;;;;;;;;;;;;;;;5028678;28;20011;-45
2023/03/17 12:25:32;;;;;;;;;;;;;;;;;;5029117;28;19920;-48
2023/03/17 12:27:57;;;;;;;;;;;;;;;;;;5028484;28;19921;-46
2023/03/17 12:30:23;;;;;;;;;;;;;;;;;;5028611;28;19913;-47
2023/03/17 12:32:49;;;;;;;;;;;;;;;;;;5028850;28;19925;-45
2023/03/17 12:35:15;;;;;;;;;;;;;;;;;;5028427;28;19909;-46
2023/03/17 12:37:41;;;;;;;;;;;;;;;;;;5028624;28;19913;-46
2023/03/17 12:40:08;;;;;;;;;;;;;;;;;;5027663;28;19913;-44
2023/03/17 12:42:34;;;;;;;;;;;;;;;;;;5029336;28;19935;-46
2023/03/17 12:45:00;;;;;;;;;;;;;;;;;;5028739;28;19937;-48
2023/03/17 12:47:26;;;;;;;;;;;;;;;;;;5028655;28;19963;-45
2023/03/17 12:49:52;;;;;;;;;;;;;;;;;;5028213;28;19913;-44
2023/03/17 12:52:18;;;;;;;;;;;;;;;;;;5028659;28;20453;-44
2023/03/17 12:54:44;;;;;;;;;;;;;;;;;;5028588;28;19920;-47
2023/03/17 12:57:10;;;;;;;;;;;;;;;;;;5028713;28;19909;-44
2023/03/17 12:59:36;;;;;;;;;;;;;;;;;;5029074;28;19952;-45
2023/03/17 13:02:02;;;;;;;;;;;;;;;;;;5028792;28;19916;-44
2023/03/17 13:04:31;;;;;;;;;;;;;;;;;;5028183;28;19953;-44
2023/03/17 13:06:57;;;;;;;;;;;;;;;;;;5028656;28;19913;-45
2023/03/17 13:09:22;;;;;;;;;;;;;;;;;;5028475;28;19971;-44
2023/03/17 13:11:48;;;;;;;;;;;;;;;;;;5028511;28;19910;-44
2023/03/17 13:14:15;;;;;;;;;;;;;;;;;;5028862;28;19927;-43
2023/03/17 13:16:41;;;;;;;;;;;;;;;;;;5028144;28;19917;-43
2023/03/17 13:19:07;;;;;;;;;;;;;;;;;;5027911;28;19913;-44
2023/03/17 13:21:33;;;;;;;;;;;;;;;;;;5028673;28;19912;-44
2023/03/17 13:24:00;;;;;;;;;;;;;;;;;;5028489;28;19928;-44
2023/03/17 13:26:26;;;;;;;;;;;;;;;;;;5028077;28;19924;-44
2023/03/17 13:28:52;;;;;;;;;;;;;;;;;;5028233;28;19920;-44
2023/03/17 13:31:18;;;;;;;;;;;;;;;;;;5030838;28;19921;-45
2023/03/17 13:33:45;;;;;;;;;;;;;;;;;;5031485;28;20401;-44
2023/03/17 13:36:11;;;;;;;;;;;;;;;;;;5031659;28;19913;-44
2023/03/17 13:38:37;;;;;;;;;;;;;;;;;;5031844;28;19914;-46
2023/03/17 13:41:02;;;;;;;;;;;;;;;;;;5031428;28;19909;-44
2023/03/17 13:43:29;;;;;;;;;;;;;;;;;;5031553;28;19983;-46
2023/03/17 13:45:55;;;;;;;;;;;;;;;;;;5031511;28;20487;-44
2023/03/17 13:48:21;;;;;;;;;;;;;;;;;;5030107;28;19914;-47
2023/03/17 13:50:47;;;;;;;;;;;;;;;;;;5031513;28;19913;-45
2023/03/17 13:53:12;;;;;;;;;;;;;;;;;;5031610;28;19917;-44
2023/03/17 13:55:39;;;;;;;;;;;;;;;;;;5031624;28;19909;-45
2023/03/17 13:58:05;;;;;;;;;;;;;;;;;;5031694;28;19920;-44
2023/03/17 14:00:32;;;;;;;;;;;;;;;;;;5029963;28;19915;-44
2023/03/17 14:02:57;;;;;;;;;;;;;;;;;;5030827;28;19920;-44
2023/03/17 14:05:23;;;;;;;;;;;;;;;;;;5031340;28;19913;-43
2023/03/17 14:07:49;;;;;;;;;;;;;;;;;;5031783;28;19913;-45
2023/03/17 14:10:15;;;;;;;;;;;;;;;;;;5031334;28;19913;-44
2023/03/17 14:12:41;;;;;;;;;;;;;;;;;;5031280;28;19917;-43
2023/03/17 14:15:07;;;;;;;;;;;;;;;;;;5030710;28;19948;-46
2023/03/17 14:17:33;;;;;;;;;;;;;;;;;;5029707;28;20677;-46
2023/03/17 14:19:59;;;;;;;;;;;;;;;;;;5030981;28;19913;-46
2023/03/17 14:22:25;;;;;;;;;;;;;;;;;;5031413;28;20451;-48
2023/03/17 14:24:51;;;;;;;;;;;;;;;;;;5030688;28;19975;-44
2023/03/17 14:27:17;;;;;;;;;;;;;;;;;;5029983;28;19921;-44
2023/03/17 14:29:43;;;;;;;;;;;;;;;;;;5030582;28;19916;-43
2023/03/17 14:32:09;;;;;;;;;;;;;;;;;;5030356;28;19912;-44
2023/03/17 14:34:35;;;;;;;;;;;;;;;;;;5031135;28;19913;-44
2023/03/17 14:37:01;;;;;;;;;;;;;;;;;;5032237;28;20389;-45
2023/03/17 14:39:27;;;;;;;;;;;;;;;;;;5030929;28;19915;-45
2023/03/17 14:41:53;;;;;;;;;;;;;;;;;;5029540;28;19966;-44
2023/03/17 14:44:19;;;;;;;;;;;;;;;;;;5030301;28;19913;-44
2023/03/17 14:46:45;;;;;;;;;;;;;;;;;;5030527;28;20301;-45
2023/03/17 14:49:10;;;;;;;;;;;;;;;;;;5030409;28;19959;-43
2023/03/17 14:51:36;;;;;;;;;;;;;;;;;;5030411;28;20431;-45
2023/03/17 14:54:02;;;;;;;;;;;;;;;;;;5030516;28;19921;-44
2023/03/17 14:56:28;;;;;;;;;;;;;;;;;;5029955;28;20243;-44
2023/03/17 14:58:54;;;;;;;;;;;;;;;;;;5030315;28;20036;-44
2023/03/17 15:01:20;;;;;;;;;;;;;;;;;;5030251;28;19909;-43
2023/03/17 15:03:46;;;;;;;;;;;;;;;;;;5030092;28;19959;-43
2023/03/17 15:06:12;;;;;;;;;;;;;;;;;;5030189;28;19920;-45
2023/03/17 15:08:39;;;;;;;;;;;;;;;;;;5030180;28;20343;-45
2023/03/17 15:11:05;;;;;;;;;;;;;;;;;;5030084;28;19962;-44
2023/03/17 15:13:31;;;;;;;;;;;;;;;;;;5030221;28;19925;-45
2023/03/17 15:15:57;;;;;;;;;;;;;;;;;;5029468;28;20405;-44
2023/03/17 15:18:24;;;;;;;;;;;;;;;;;;5029866;28;19909;-44
2023/03/17 15:20:50;;;;;;;;;;;;;;;;;;5030029;28;20463;-44
2023/03/17 15:23:17;;;;;;;;;;;;;;;;;;5029742;28;19964;-43
2023/03/17 15:25:42;;;;;;;;;;;;;;;;;;5030020;28;20313;-43
2023/03/17 15:28:08;;;;;;;;;;;;;;;;;;5029664;28;19923;-43
2023/03/17 15:30:34;;;;;;;;;;;;;;;;;;5029400;28;19913;-44
2023/03/17 15:33:00;;;;;;;;;;;;;;;;;;5030015;28;20015;-43
2023/03/17 15:35:26;;;;;;;;;;;;;;;;;;5029450;28;19920;-44
2023/03/17 15:37:52;;;;;;;;;;;;;;;;;;5029499;28;19913;-44
2023/03/17 15:40:18;;;;;;;;;;;;;;;;;;5029557;28;19913;-43
2023/03/17 15:42:44;;;;;;;;;;;;;;;;;;5029417;28;20499;-44
2023/03/17 15:45:10;;;;;;;;;;;;;;;;;;5029040;28;20385;-44
2023/03/17 15:47:38;;;;;;;;;;;;;;;;;;5029490;28;19920;-45
2023/03/17 15:50:04;;;;;;;;;;;;;;;;;;5029147;28;19935;-43
2023/03/17 15:52:30;;;;;;;;;;;;;;;;;;5028397;28;19919;-43
2023/03/17 15:54:56;;;;;;;;;;;;;;;;;;5029127;28;20146;-45
2023/03/17 15:57:22;;;;;;;;;;;;;;;;;;5028878;28;20311;-44
2023/03/17 15:59:48;;;;;;;;;;;;;;;;;;5028911;28;19913;-44
2023/03/17 16:02:14;;;;;;;;;;;;;;;;;;5029388;28;19913;-44
2023/03/17 16:04:40;;;;;;;;;;;;;;;;;;5029303;28;19913;-44
2023/03/17 16:07:06;;;;;;;;;;;;;;;;;;5029288;28;19909;-45
2023/03/17 16:09:32;;;;;;;;;;;;;;;;;;5029028;28;19992;-45
2023/03/17 16:11:58;;;;;;;;;;;;;;;;;;5028764;28;19909;-46
2023/03/17 16:14:24;;;;;;;;;;;;;;;;;;5028276;28;20353;-44
2023/03/17 16:16:50;;;;;;;;;;;;;;;;;;5029044;28;19917;-45
2023/03/17 16:19:16;;;;;;;;;;;;;;;;;;5028750;28;19913;-45
2023/03/17 16:21:42;;;;;;;;;;;;;;;;;;5028462;28;20417;-45
2023/03/17 16:24:08;;;;;;;;;;;;;;;;;;5028507;28;19920;-47
2023/03/17 16:26:34;;;;;;;;;;;;;;;;;;5028374;28;19917;-44
2023/03/17 16:29:00;;;;;;;;;;;;;;;;;;5027806;28;19917;-46
2023/03/17 16:31:27;;;;;;;;;;;;;;;;;;5016605;28;19916;-44
2023/03/17 16:33:53;;;;;;;;;;;;;;;;;;5018459;28;19925;-45
2023/03/17 16:36:19;;;;;;;;;;;;;;;;;;5028287;28;19999;-45
2023/03/17 16:38:46;;;;;;;;;;;;;;;;;;5028638;28;19917;-44